sensor_id;sensor_type;location;lat;lon;timestamp;temperature;humidity
54684;DHT22;40582;53.100;6.686;2023-04-12T00:00:33;6.80;99.90
54684;DHT22;40582;53.100;6.686;2023-04-12T00:02:59;6.80;99.90
54684;DHT22;40582;53.100;6.686;2023-04-12T00:05:28;6.90;99.90
54684;DHT22;40582;53.100;6.686;2023-04-12T00:07:55;6.90;99.90
54684;DHT22;40582;53.100;6.686;2023-04-12T00:10:21;6.90;99.90
54684;DHT22;40582;53.100;6.686;2023-04-12T00:12:47;6.90;99.90
54684;DHT22;40582;53.100;6.686;2023-04-12T00:15:14;6.90;99.90
54684;DHT22;40582;53.100;6.686;2023-04-12T00:17:40;6.80;99.90
54684;DHT22;40582;53.100;6.686;2023-04-12T00:20:07;6.80;99.90
54684;DHT22;40582;53.100;6.686;2023-04-12T00:22:41;6.80;99.90
54684;DHT22;40582;53.100;6.686;2023-04-12T00:25:07;6.80;99.90
54684;DHT22;40582;53.100;6.686;2023-04-12T00:27:33;6.80;99.90
54684;DHT22;40582;53.100;6.686;2023-04-12T00:29:59;6.90;99.90
54684;DHT22;40582;53.100;6.686;2023-04-12T00:32:26;6.90;99.90
54684;DHT22;40582;53.100;6.686;2023-04-12T00:34:51;6.90;99.90
54684;DHT22;40582;53.100;6.686;2023-04-12T00:37:17;7.00;99.90
54684;DHT22;40582;53.100;6.686;2023-04-12T00:39:43;7.00;99.90
54684;DHT22;40582;53.100;6.686;2023-04-12T00:42:08;7.00;99.90
54684;DHT22;40582;53.100;6.686;2023-04-12T00:44:34;7.00;99.90
54684;DHT22;40582;53.100;6.686;2023-04-12T00:47:01;7.10;99.90
54684;DHT22;40582;53.100;6.686;2023-04-12T00:49:29;7.10;99.90
54684;DHT22;40582;53.100;6.686;2023-04-12T00:52:07;7.10;99.90
54684;DHT22;40582;53.100;6.686;2023-04-12T00:54:33;7.20;99.90
54684;DHT22;40582;53.100;6.686;2023-04-12T00:57:00;7.20;99.90
54684;DHT22;40582;53.100;6.686;2023-04-12T00:59:26;7.20;99.90
54684;DHT22;40582;53.100;6.686;2023-04-12T01:01:54;7.20;99.90
54684;DHT22;40582;53.100;6.686;2023-04-12T01:04:20;7.20;99.90
54684;DHT22;40582;53.100;6.686;2023-04-12T01:12:28;7.10;99.90
54684;DHT22;40582;53.100;6.686;2023-04-12T01:15:03;7.20;99.90
54684;DHT22;40582;53.100;6.686;2023-04-12T01:17:33;7.20;99.90
54684;DHT22;40582;53.100;6.686;2023-04-12T01:20:13;7.20;99.90
54684;DHT22;40582;53.100;6.686;2023-04-12T01:28:31;7.30;99.90
54684;DHT22;40582;53.100;6.686;2023-04-12T01:30:59;7.30;99.90
54684;DHT22;40582;53.100;6.686;2023-04-12T01:33:26;7.30;99.90
54684;DHT22;40582;53.100;6.686;2023-04-12T01:36:00;7.40;99.90
54684;DHT22;40582;53.100;6.686;2023-04-12T01:38:27;7.30;99.90
54684;DHT22;40582;53.100;6.686;2023-04-12T01:40:54;7.30;99.90
54684;DHT22;40582;53.100;6.686;2023-04-12T01:43:20;7.30;99.90
54684;DHT22;40582;53.100;6.686;2023-04-12T01:45:46;7.30;99.90
54684;DHT22;40582;53.100;6.686;2023-04-12T01:48:12;7.40;99.90
54684;DHT22;40582;53.100;6.686;2023-04-12T01:51:09;7.50;99.90
54684;DHT22;40582;53.100;6.686;2023-04-12T01:53:56;7.60;99.90
54684;DHT22;40582;53.100;6.686;2023-04-12T01:56:25;7.70;99.90
54684;DHT22;40582;53.100;6.686;2023-04-12T01:58:55;7.70;99.90
54684;DHT22;40582;53.100;6.686;2023-04-12T02:01:22;7.80;99.90
54684;DHT22;40582;53.100;6.686;2023-04-12T02:03:48;7.90;99.90
54684;DHT22;40582;53.100;6.686;2023-04-12T02:06:15;7.90;99.90
54684;DHT22;40582;53.100;6.686;2023-04-12T02:08:43;7.90;99.90
54684;DHT22;40582;53.100;6.686;2023-04-12T02:11:10;8.00;99.90
54684;DHT22;40582;53.100;6.686;2023-04-12T02:13:36;7.90;99.90
54684;DHT22;40582;53.100;6.686;2023-04-12T02:16:02;8.00;99.90
54684;DHT22;40582;53.100;6.686;2023-04-12T02:18:28;7.90;99.90
54684;DHT22;40582;53.100;6.686;2023-04-12T02:20:55;7.90;99.90
54684;DHT22;40582;53.100;6.686;2023-04-12T02:23:20;8.00;99.90
54684;DHT22;40582;53.100;6.686;2023-04-12T02:25:46;8.00;99.90
54684;DHT22;40582;53.100;6.686;2023-04-12T02:28:12;8.00;99.90
54684;DHT22;40582;53.100;6.686;2023-04-12T02:30:38;8.00;99.90
54684;DHT22;40582;53.100;6.686;2023-04-12T02:33:06;8.00;99.90
54684;DHT22;40582;53.100;6.686;2023-04-12T02:35:34;8.00;99.90
54684;DHT22;40582;53.100;6.686;2023-04-12T02:38:01;8.00;99.90
54684;DHT22;40582;53.100;6.686;2023-04-12T02:40:28;8.00;99.90
54684;DHT22;40582;53.100;6.686;2023-04-12T02:42:54;8.00;99.90
54684;DHT22;40582;53.100;6.686;2023-04-12T02:45:20;8.00;99.90
54684;DHT22;40582;53.100;6.686;2023-04-12T02:47:46;8.00;99.90
54684;DHT22;40582;53.100;6.686;2023-04-12T02:50:11;8.00;99.90
54684;DHT22;40582;53.100;6.686;2023-04-12T02:52:37;8.00;99.90
54684;DHT22;40582;53.100;6.686;2023-04-12T02:55:03;8.00;99.90
54684;DHT22;40582;53.100;6.686;2023-04-12T02:57:29;8.00;99.90
54684;DHT22;40582;53.100;6.686;2023-04-12T02:59:54;7.90;99.90
54684;DHT22;40582;53.100;6.686;2023-04-12T03:02:21;7.90;99.90
54684;DHT22;40582;53.100;6.686;2023-04-12T03:04:47;7.90;99.90
54684;DHT22;40582;53.100;6.686;2023-04-12T03:07:19;7.90;99.90
54684;DHT22;40582;53.100;6.686;2023-04-12T03:09:46;8.00;99.90
54684;DHT22;40582;53.100;6.686;2023-04-12T03:12:14;8.00;99.90
54684;DHT22;40582;53.100;6.686;2023-04-12T03:14:40;8.00;99.90
54684;DHT22;40582;53.100;6.686;2023-04-12T03:17:06;8.00;99.90
54684;DHT22;40582;53.100;6.686;2023-04-12T03:19:32;8.00;99.90
54684;DHT22;40582;53.100;6.686;2023-04-12T03:22:00;8.10;99.90
54684;DHT22;40582;53.100;6.686;2023-04-12T03:24:26;8.10;99.90
54684;DHT22;40582;53.100;6.686;2023-04-12T03:26:53;8.10;99.90
54684;DHT22;40582;53.100;6.686;2023-04-12T03:29:19;8.10;99.90
54684;DHT22;40582;53.100;6.686;2023-04-12T03:31:45;8.00;99.90
54684;DHT22;40582;53.100;6.686;2023-04-12T03:34:10;8.10;99.90
54684;DHT22;40582;53.100;6.686;2023-04-12T03:36:36;8.10;99.90
54684;DHT22;40582;53.100;6.686;2023-04-12T03:39:03;8.10;99.90
54684;DHT22;40582;53.100;6.686;2023-04-12T03:41:28;8.10;99.90
54684;DHT22;40582;53.100;6.686;2023-04-12T03:43:54;8.10;99.90
54684;DHT22;40582;53.100;6.686;2023-04-12T03:46:20;8.10;99.90
54684;DHT22;40582;53.100;6.686;2023-04-12T03:48:46;8.10;99.90
54684;DHT22;40582;53.100;6.686;2023-04-12T03:51:12;8.10;99.90
54684;DHT22;40582;53.100;6.686;2023-04-12T03:53:38;8.10;99.90
54684;DHT22;40582;53.100;6.686;2023-04-12T03:56:04;8.10;99.90
54684;DHT22;40582;53.100;6.686;2023-04-12T03:58:30;8.10;99.90
54684;DHT22;40582;53.100;6.686;2023-04-12T04:00:58;8.10;99.90
54684;DHT22;40582;53.100;6.686;2023-04-12T04:03:26;8.10;99.90
54684;DHT22;40582;53.100;6.686;2023-04-12T04:05:54;8.00;99.90
54684;DHT22;40582;53.100;6.686;2023-04-12T04:08:20;8.00;99.90
54684;DHT22;40582;53.100;6.686;2023-04-12T04:10:46;8.00;99.90
54684;DHT22;40582;53.100;6.686;2023-04-12T04:13:12;8.00;99.90
54684;DHT22;40582;53.100;6.686;2023-04-12T04:15:38;8.00;99.90
54684;DHT22;40582;53.100;6.686;2023-04-12T04:18:03;7.90;99.90
54684;DHT22;40582;53.100;6.686;2023-04-12T04:20:29;7.90;99.90
54684;DHT22;40582;53.100;6.686;2023-04-12T04:22:56;7.90;99.90
54684;DHT22;40582;53.100;6.686;2023-04-12T04:25:22;7.90;99.90
54684;DHT22;40582;53.100;6.686;2023-04-12T04:27:55;7.90;99.90
54684;DHT22;40582;53.100;6.686;2023-04-12T04:30:21;7.90;99.90
54684;DHT22;40582;53.100;6.686;2023-04-12T04:32:48;7.90;99.90
54684;DHT22;40582;53.100;6.686;2023-04-12T04:35:14;7.90;99.90
54684;DHT22;40582;53.100;6.686;2023-04-12T04:37:41;7.90;99.90
54684;DHT22;40582;53.100;6.686;2023-04-12T04:40:08;8.10;99.90
54684;DHT22;40582;53.100;6.686;2023-04-12T04:42:34;7.90;99.90
54684;DHT22;40582;53.100;6.686;2023-04-12T04:44:59;7.80;99.90
54684;DHT22;40582;53.100;6.686;2023-04-12T04:47:37;7.80;99.90
54684;DHT22;40582;53.100;6.686;2023-04-12T04:50:03;7.80;99.90
54684;DHT22;40582;53.100;6.686;2023-04-12T04:52:28;7.70;99.90
54684;DHT22;40582;53.100;6.686;2023-04-12T04:54:54;7.70;99.90
54684;DHT22;40582;53.100;6.686;2023-04-12T04:57:22;7.70;99.90
54684;DHT22;40582;53.100;6.686;2023-04-12T04:59:48;7.70;99.90
54684;DHT22;40582;53.100;6.686;2023-04-12T05:02:14;7.60;99.90
54684;DHT22;40582;53.100;6.686;2023-04-12T05:04:41;7.60;99.90
54684;DHT22;40582;53.100;6.686;2023-04-12T05:07:06;7.60;99.90
54684;DHT22;40582;53.100;6.686;2023-04-12T05:09:32;7.60;99.90
54684;DHT22;40582;53.100;6.686;2023-04-12T05:11:58;7.60;99.90
54684;DHT22;40582;53.100;6.686;2023-04-12T05:14:23;7.60;99.90
54684;DHT22;40582;53.100;6.686;2023-04-12T05:16:49;7.60;99.90
54684;DHT22;40582;53.100;6.686;2023-04-12T05:19:15;7.60;99.90
54684;DHT22;40582;53.100;6.686;2023-04-12T05:21:41;7.60;99.90
54684;DHT22;40582;53.100;6.686;2023-04-12T05:24:07;7.60;99.90
54684;DHT22;40582;53.100;6.686;2023-04-12T05:26:32;7.60;99.90
54684;DHT22;40582;53.100;6.686;2023-04-12T05:28:58;7.60;99.90
54684;DHT22;40582;53.100;6.686;2023-04-12T05:31:26;7.60;99.90
54684;DHT22;40582;53.100;6.686;2023-04-12T05:33:53;7.60;99.90
54684;DHT22;40582;53.100;6.686;2023-04-12T05:36:21;7.60;99.90
54684;DHT22;40582;53.100;6.686;2023-04-12T05:38:47;7.60;99.90
54684;DHT22;40582;53.100;6.686;2023-04-12T05:41:13;7.60;99.90
54684;DHT22;40582;53.100;6.686;2023-04-12T05:43:38;7.60;99.90
54684;DHT22;40582;53.100;6.686;2023-04-12T05:46:04;7.50;99.90
54684;DHT22;40582;53.100;6.686;2023-04-12T05:48:32;7.50;99.90
54684;DHT22;40582;53.100;6.686;2023-04-12T05:50:58;7.50;99.90
54684;DHT22;40582;53.100;6.686;2023-04-12T05:53:23;7.50;99.90
54684;DHT22;40582;53.100;6.686;2023-04-12T05:55:49;7.50;99.90
54684;DHT22;40582;53.100;6.686;2023-04-12T05:58:16;7.50;99.90
54684;DHT22;40582;53.100;6.686;2023-04-12T06:00:41;7.50;99.90
54684;DHT22;40582;53.100;6.686;2023-04-12T06:03:10;7.50;99.90
54684;DHT22;40582;53.100;6.686;2023-04-12T06:05:36;7.50;99.90
54684;DHT22;40582;53.100;6.686;2023-04-12T06:08:02;7.50;99.90
54684;DHT22;40582;53.100;6.686;2023-04-12T06:10:30;7.50;99.90
54684;DHT22;40582;53.100;6.686;2023-04-12T06:12:56;7.50;99.90
54684;DHT22;40582;53.100;6.686;2023-04-12T06:15:22;7.50;99.90
54684;DHT22;40582;53.100;6.686;2023-04-12T06:17:47;7.60;99.90
54684;DHT22;40582;53.100;6.686;2023-04-12T06:20:16;7.50;99.90
54684;DHT22;40582;53.100;6.686;2023-04-12T06:22:41;7.50;99.90
54684;DHT22;40582;53.100;6.686;2023-04-12T06:25:07;7.50;99.90
54684;DHT22;40582;53.100;6.686;2023-04-12T06:27:33;7.50;99.90
54684;DHT22;40582;53.100;6.686;2023-04-12T06:29:59;7.40;99.90
54684;DHT22;40582;53.100;6.686;2023-04-12T06:32:24;7.40;99.90
54684;DHT22;40582;53.100;6.686;2023-04-12T06:34:50;7.40;99.90
54684;DHT22;40582;53.100;6.686;2023-04-12T06:37:16;7.40;99.90
54684;DHT22;40582;53.100;6.686;2023-04-12T06:39:42;7.40;99.90
54684;DHT22;40582;53.100;6.686;2023-04-12T06:42:07;7.40;99.90
54684;DHT22;40582;53.100;6.686;2023-04-12T06:44:33;7.40;99.90
54684;DHT22;40582;53.100;6.686;2023-04-12T06:46:59;7.40;99.90
54684;DHT22;40582;53.100;6.686;2023-04-12T06:49:25;7.40;99.90
54684;DHT22;40582;53.100;6.686;2023-04-12T06:51:50;7.50;99.90
54684;DHT22;40582;53.100;6.686;2023-04-12T06:54:16;7.40;99.90
54684;DHT22;40582;53.100;6.686;2023-04-12T06:56:42;7.40;99.90
54684;DHT22;40582;53.100;6.686;2023-04-12T06:59:08;7.40;99.90
54684;DHT22;40582;53.100;6.686;2023-04-12T07:01:34;7.40;99.90
54684;DHT22;40582;53.100;6.686;2023-04-12T07:04:00;7.40;99.90
54684;DHT22;40582;53.100;6.686;2023-04-12T07:06:26;7.50;99.90
54684;DHT22;40582;53.100;6.686;2023-04-12T07:08:52;7.50;99.90
54684;DHT22;40582;53.100;6.686;2023-04-12T07:11:18;7.60;99.90
54684;DHT22;40582;53.100;6.686;2023-04-12T07:13:46;7.50;99.90
54684;DHT22;40582;53.100;6.686;2023-04-12T07:16:12;7.60;99.90
54684;DHT22;40582;53.100;6.686;2023-04-12T07:18:38;7.60;99.90
54684;DHT22;40582;53.100;6.686;2023-04-12T07:21:04;7.60;99.90
54684;DHT22;40582;53.100;6.686;2023-04-12T07:23:30;7.60;99.90
54684;DHT22;40582;53.100;6.686;2023-04-12T07:26:00;7.50;99.90
54684;DHT22;40582;53.100;6.686;2023-04-12T07:28:26;7.50;99.90
54684;DHT22;40582;53.100;6.686;2023-04-12T07:30:52;7.60;99.90
54684;DHT22;40582;53.100;6.686;2023-04-12T07:33:18;7.50;99.90
54684;DHT22;40582;53.100;6.686;2023-04-12T07:35:43;7.50;99.90
54684;DHT22;40582;53.100;6.686;2023-04-12T07:38:09;7.60;99.90
54684;DHT22;40582;53.100;6.686;2023-04-12T07:40:35;7.60;99.90
54684;DHT22;40582;53.100;6.686;2023-04-12T07:43:01;7.60;99.90
54684;DHT22;40582;53.100;6.686;2023-04-12T07:45:26;7.60;99.90
54684;DHT22;40582;53.100;6.686;2023-04-12T07:47:52;7.60;99.90
54684;DHT22;40582;53.100;6.686;2023-04-12T07:50:18;7.60;99.90
54684;DHT22;40582;53.100;6.686;2023-04-12T07:52:43;7.60;99.90
54684;DHT22;40582;53.100;6.686;2023-04-12T07:55:09;7.60;99.90
54684;DHT22;40582;53.100;6.686;2023-04-12T07:57:35;7.60;99.90
54684;DHT22;40582;53.100;6.686;2023-04-12T08:00:01;7.70;99.90
54684;DHT22;40582;53.100;6.686;2023-04-12T08:02:26;7.60;99.90
54684;DHT22;40582;53.100;6.686;2023-04-12T08:04:52;7.70;99.90
54684;DHT22;40582;53.100;6.686;2023-04-12T08:07:19;7.70;99.90
54684;DHT22;40582;53.100;6.686;2023-04-12T08:09:46;7.70;99.90
54684;DHT22;40582;53.100;6.686;2023-04-12T08:12:12;7.70;99.90
54684;DHT22;40582;53.100;6.686;2023-04-12T08:14:38;7.70;99.90
54684;DHT22;40582;53.100;6.686;2023-04-12T08:17:03;7.70;99.90
54684;DHT22;40582;53.100;6.686;2023-04-12T08:19:29;7.80;99.90
54684;DHT22;40582;53.100;6.686;2023-04-12T08:21:55;8.00;99.90
54684;DHT22;40582;53.100;6.686;2023-04-12T08:24:21;8.00;99.90
54684;DHT22;40582;53.100;6.686;2023-04-12T08:26:46;8.10;99.90
54684;DHT22;40582;53.100;6.686;2023-04-12T08:29:12;8.10;99.90
54684;DHT22;40582;53.100;6.686;2023-04-12T08:31:38;8.20;99.90
54684;DHT22;40582;53.100;6.686;2023-04-12T08:34:04;8.20;99.90
54684;DHT22;40582;53.100;6.686;2023-04-12T08:36:30;8.20;99.90
54684;DHT22;40582;53.100;6.686;2023-04-12T08:38:59;8.20;99.90
54684;DHT22;40582;53.100;6.686;2023-04-12T08:41:25;8.20;99.90
54684;DHT22;40582;53.100;6.686;2023-04-12T08:43:51;8.20;99.90
54684;DHT22;40582;53.100;6.686;2023-04-12T08:46:17;8.20;99.90
54684;DHT22;40582;53.100;6.686;2023-04-12T08:48:48;8.20;99.90
54684;DHT22;40582;53.100;6.686;2023-04-12T08:51:15;8.30;99.90
54684;DHT22;40582;53.100;6.686;2023-04-12T08:53:41;8.30;99.90
54684;DHT22;40582;53.100;6.686;2023-04-12T08:56:09;8.40;99.90
54684;DHT22;40582;53.100;6.686;2023-04-12T08:58:39;8.40;99.90
54684;DHT22;40582;53.100;6.686;2023-04-12T09:01:13;8.50;99.90
54684;DHT22;40582;53.100;6.686;2023-04-12T09:03:41;8.50;99.90
54684;DHT22;40582;53.100;6.686;2023-04-12T09:06:07;8.40;99.90
54684;DHT22;40582;53.100;6.686;2023-04-12T09:08:33;8.40;99.90
54684;DHT22;40582;53.100;6.686;2023-04-12T09:11:00;8.40;99.90
54684;DHT22;40582;53.100;6.686;2023-04-12T09:13:33;8.40;99.90
54684;DHT22;40582;53.100;6.686;2023-04-12T09:16:00;8.40;99.90
54684;DHT22;40582;53.100;6.686;2023-04-12T09:18:25;8.40;99.90
54684;DHT22;40582;53.100;6.686;2023-04-12T09:21:07;8.40;99.90
54684;DHT22;40582;53.100;6.686;2023-04-12T09:23:33;8.40;99.90
54684;DHT22;40582;53.100;6.686;2023-04-12T09:26:02;8.40;99.90
54684;DHT22;40582;53.100;6.686;2023-04-12T09:28:29;8.40;99.90
54684;DHT22;40582;53.100;6.686;2023-04-12T09:30:59;8.40;99.90
54684;DHT22;40582;53.100;6.686;2023-04-12T09:33:36;8.40;99.90
54684;DHT22;40582;53.100;6.686;2023-04-12T09:36:03;8.40;99.90
54684;DHT22;40582;53.100;6.686;2023-04-12T09:38:30;8.40;99.90
54684;DHT22;40582;53.100;6.686;2023-04-12T09:40:56;8.60;99.90
54684;DHT22;40582;53.100;6.686;2023-04-12T09:43:38;8.80;99.90
54684;DHT22;40582;53.100;6.686;2023-04-12T09:46:12;9.00;99.90
54684;DHT22;40582;53.100;6.686;2023-04-12T09:48:47;9.30;99.90
54684;DHT22;40582;53.100;6.686;2023-04-12T09:51:22;9.70;99.90
54684;DHT22;40582;53.100;6.686;2023-04-12T09:53:48;9.90;99.90
54684;DHT22;40582;53.100;6.686;2023-04-12T09:56:15;10.10;99.90
54684;DHT22;40582;53.100;6.686;2023-04-12T09:58:42;10.20;99.90
54684;DHT22;40582;53.100;6.686;2023-04-12T10:01:09;10.20;99.90
54684;DHT22;40582;53.100;6.686;2023-04-12T10:03:35;10.20;99.90
54684;DHT22;40582;53.100;6.686;2023-04-12T10:06:02;10.30;99.90
54684;DHT22;40582;53.100;6.686;2023-04-12T10:08:30;10.40;99.90
54684;DHT22;40582;53.100;6.686;2023-04-12T10:10:56;10.50;99.90
54684;DHT22;40582;53.100;6.686;2023-04-12T10:13:23;10.60;99.90
54684;DHT22;40582;53.100;6.686;2023-04-12T10:15:51;10.70;99.90
54684;DHT22;40582;53.100;6.686;2023-04-12T10:18:18;10.70;99.90
54684;DHT22;40582;53.100;6.686;2023-04-12T10:20:45;10.80;99.90
54684;DHT22;40582;53.100;6.686;2023-04-12T10:23:11;10.90;99.90
54684;DHT22;40582;53.100;6.686;2023-04-12T10:25:38;10.90;99.90
54684;DHT22;40582;53.100;6.686;2023-04-12T10:28:19;11.00;99.90
54684;DHT22;40582;53.100;6.686;2023-04-12T10:30:48;11.20;99.90
54684;DHT22;40582;53.100;6.686;2023-04-12T10:33:19;11.50;99.90
54684;DHT22;40582;53.100;6.686;2023-04-12T10:38:19;12.20;99.90
54684;DHT22;40582;53.100;6.686;2023-04-12T10:41:14;12.40;99.90
54684;DHT22;40582;53.100;6.686;2023-04-12T10:43:45;12.60;99.90
54684;DHT22;40582;53.100;6.686;2023-04-12T10:49:22;12.60;99.90
54684;DHT22;40582;53.100;6.686;2023-04-12T10:56:51;13.10;99.90
54684;DHT22;40582;53.100;6.686;2023-04-12T10:59:17;13.00;99.90
54684;DHT22;40582;53.100;6.686;2023-04-12T11:02:11;13.10;99.90
54684;DHT22;40582;53.100;6.686;2023-04-12T11:04:37;13.20;99.90
54684;DHT22;40582;53.100;6.686;2023-04-12T11:07:07;13.40;99.90
54684;DHT22;40582;53.100;6.686;2023-04-12T11:19:45;13.40;99.90
54684;DHT22;40582;53.100;6.686;2023-04-12T11:22:13;13.40;99.90
54684;DHT22;40582;53.100;6.686;2023-04-12T11:24:40;13.50;99.90
54684;DHT22;40582;53.100;6.686;2023-04-12T11:27:07;13.90;99.90
54684;DHT22;40582;53.100;6.686;2023-04-12T11:29:33;13.90;99.90
54684;DHT22;40582;53.100;6.686;2023-04-12T11:32:02;13.90;99.90
54684;DHT22;40582;53.100;6.686;2023-04-12T11:34:32;13.80;99.90
54684;DHT22;40582;53.100;6.686;2023-04-12T11:36:59;13.90;99.90
54684;DHT22;40582;53.100;6.686;2023-04-12T11:39:26;13.90;99.90
54684;DHT22;40582;53.100;6.686;2023-04-12T11:41:53;14.00;99.90
54684;DHT22;40582;53.100;6.686;2023-04-12T11:44:19;14.10;99.90
54684;DHT22;40582;53.100;6.686;2023-04-12T11:46:47;14.00;99.90
54684;DHT22;40582;53.100;6.686;2023-04-12T11:49:14;14.00;99.90
54684;DHT22;40582;53.100;6.686;2023-04-12T11:51:44;14.00;99.90
54684;DHT22;40582;53.100;6.686;2023-04-12T11:54:11;14.10;99.90
54684;DHT22;40582;53.100;6.686;2023-04-12T11:56:37;14.00;99.90
54684;DHT22;40582;53.100;6.686;2023-04-12T11:59:03;14.00;99.90
54684;DHT22;40582;53.100;6.686;2023-04-12T12:01:29;13.90;99.90
54684;DHT22;40582;53.100;6.686;2023-04-12T12:03:57;13.80;99.90
54684;DHT22;40582;53.100;6.686;2023-04-12T12:06:24;13.80;99.90
54684;DHT22;40582;53.100;6.686;2023-04-12T12:08:51;13.70;99.90
54684;DHT22;40582;53.100;6.686;2023-04-12T12:11:19;13.70;99.90
54684;DHT22;40582;53.100;6.686;2023-04-12T12:13:53;13.60;99.90
54684;DHT22;40582;53.100;6.686;2023-04-12T12:16:24;13.60;99.90
54684;DHT22;40582;53.100;6.686;2023-04-12T12:18:50;13.60;99.90
54684;DHT22;40582;53.100;6.686;2023-04-12T12:21:17;13.70;99.90
54684;DHT22;40582;53.100;6.686;2023-04-12T12:23:44;13.80;99.90
54684;DHT22;40582;53.100;6.686;2023-04-12T12:26:21;13.90;99.90
54684;DHT22;40582;53.100;6.686;2023-04-12T12:28:54;14.00;99.90
54684;DHT22;40582;53.100;6.686;2023-04-12T12:31:22;14.10;99.90
54684;DHT22;40582;53.100;6.686;2023-04-12T12:33:49;14.30;99.90
54684;DHT22;40582;53.100;6.686;2023-04-12T12:36:18;14.50;99.90
54684;DHT22;40582;53.100;6.686;2023-04-12T12:38:46;14.50;99.90
54684;DHT22;40582;53.100;6.686;2023-04-12T12:41:22;14.60;99.90
54684;DHT22;40582;53.100;6.686;2023-04-12T12:43:50;14.80;99.90
54684;DHT22;40582;53.100;6.686;2023-04-12T12:46:17;14.90;99.90
54684;DHT22;40582;53.100;6.686;2023-04-12T12:48:45;15.00;99.90
54684;DHT22;40582;53.100;6.686;2023-04-12T12:51:12;15.10;99.90
54684;DHT22;40582;53.100;6.686;2023-04-12T12:53:38;15.20;99.90
54684;DHT22;40582;53.100;6.686;2023-04-12T12:56:05;15.40;99.90
54684;DHT22;40582;53.100;6.686;2023-04-12T12:58:31;15.30;99.90
54684;DHT22;40582;53.100;6.686;2023-04-12T13:00:57;15.20;99.90
54684;DHT22;40582;53.100;6.686;2023-04-12T13:03:23;15.10;99.90
54684;DHT22;40582;53.100;6.686;2023-04-12T13:05:49;14.90;99.90
54684;DHT22;40582;53.100;6.686;2023-04-12T13:08:16;14.80;99.90
54684;DHT22;40582;53.100;6.686;2023-04-12T13:10:41;14.70;99.90
54684;DHT22;40582;53.100;6.686;2023-04-12T13:13:07;14.70;99.90
54684;DHT22;40582;53.100;6.686;2023-04-12T13:15:33;14.70;99.90
54684;DHT22;40582;53.100;6.686;2023-04-12T13:17:58;14.60;99.90
54684;DHT22;40582;53.100;6.686;2023-04-12T13:20:24;14.70;99.90
54684;DHT22;40582;53.100;6.686;2023-04-12T13:22:52;14.60;99.90
54684;DHT22;40582;53.100;6.686;2023-04-12T13:25:19;14.60;99.90
54684;DHT22;40582;53.100;6.686;2023-04-12T13:27:47;14.70;99.90
54684;DHT22;40582;53.100;6.686;2023-04-12T13:30:13;14.60;99.90
54684;DHT22;40582;53.100;6.686;2023-04-12T13:32:39;14.50;99.90
54684;DHT22;40582;53.100;6.686;2023-04-12T13:35:05;14.40;99.90
54684;DHT22;40582;53.100;6.686;2023-04-12T13:37:32;14.40;99.90
54684;DHT22;40582;53.100;6.686;2023-04-12T13:39:57;14.20;99.90
54684;DHT22;40582;53.100;6.686;2023-04-12T13:42:23;14.20;99.90
54684;DHT22;40582;53.100;6.686;2023-04-12T13:44:49;14.20;99.90
54684;DHT22;40582;53.100;6.686;2023-04-12T13:47:15;14.10;99.90
54684;DHT22;40582;53.100;6.686;2023-04-12T13:49:42;14.20;99.90
54684;DHT22;40582;53.100;6.686;2023-04-12T13:52:08;14.10;99.90
54684;DHT22;40582;53.100;6.686;2023-04-12T13:54:34;14.00;99.90
54684;DHT22;40582;53.100;6.686;2023-04-12T13:57:00;13.70;99.90
54684;DHT22;40582;53.100;6.686;2023-04-12T13:59:27;13.50;99.90
54684;DHT22;40582;53.100;6.686;2023-04-12T14:01:53;13.30;99.90
54684;DHT22;40582;53.100;6.686;2023-04-12T14:04:19;13.20;99.90
54684;DHT22;40582;53.100;6.686;2023-04-12T14:06:44;13.20;99.90
54684;DHT22;40582;53.100;6.686;2023-04-12T14:09:25;13.10;99.90
54684;DHT22;40582;53.100;6.686;2023-04-12T14:11:52;13.10;99.90
54684;DHT22;40582;53.100;6.686;2023-04-12T14:14:20;13.10;99.90
54684;DHT22;40582;53.100;6.686;2023-04-12T14:16:47;13.10;99.90
54684;DHT22;40582;53.100;6.686;2023-04-12T14:19:13;13.10;99.90
54684;DHT22;40582;53.100;6.686;2023-04-12T14:21:39;13.10;99.90
54684;DHT22;40582;53.100;6.686;2023-04-12T14:24:05;13.10;99.90
54684;DHT22;40582;53.100;6.686;2023-04-12T14:26:31;13.10;99.90
54684;DHT22;40582;53.100;6.686;2023-04-12T14:28:57;13.20;99.90
54684;DHT22;40582;53.100;6.686;2023-04-12T14:31:22;13.40;99.90
54684;DHT22;40582;53.100;6.686;2023-04-12T14:33:48;13.70;99.90
54684;DHT22;40582;53.100;6.686;2023-04-12T14:36:14;14.00;99.90
54684;DHT22;40582;53.100;6.686;2023-04-12T14:38:40;14.00;99.20
54684;DHT22;40582;53.100;6.686;2023-04-12T14:41:07;14.00;99.00
54684;DHT22;40582;53.100;6.686;2023-04-12T14:43:33;14.00;99.30
54684;DHT22;40582;53.100;6.686;2023-04-12T14:45:59;14.10;99.30
54684;DHT22;40582;53.100;6.686;2023-04-12T14:48:25;14.40;99.20
54684;DHT22;40582;53.100;6.686;2023-04-12T14:50:50;14.50;98.60
54684;DHT22;40582;53.100;6.686;2023-04-12T14:53:17;14.60;96.70
54684;DHT22;40582;53.100;6.686;2023-04-12T14:55:44;14.50;94.10
54684;DHT22;40582;53.100;6.686;2023-04-12T14:58:11;14.40;93.30
54684;DHT22;40582;53.100;6.686;2023-04-12T15:00:37;14.20;93.10
54684;DHT22;40582;53.100;6.686;2023-04-12T15:03:03;14.20;93.60
54684;DHT22;40582;53.100;6.686;2023-04-12T15:05:29;14.20;93.80
54684;DHT22;40582;53.100;6.686;2023-04-12T15:07:55;14.00;93.50
54684;DHT22;40582;53.100;6.686;2023-04-12T15:10:21;13.90;93.70
54684;DHT22;40582;53.100;6.686;2023-04-12T15:12:47;13.80;94.10
54684;DHT22;40582;53.100;6.686;2023-04-12T15:15:13;13.70;94.70
54684;DHT22;40582;53.100;6.686;2023-04-12T15:17:40;13.60;95.10
54684;DHT22;40582;53.100;6.686;2023-04-12T15:20:06;13.50;95.80
54684;DHT22;40582;53.100;6.686;2023-04-12T15:22:40;13.30;96.50
54684;DHT22;40582;53.100;6.686;2023-04-12T15:25:06;13.20;97.50
54684;DHT22;40582;53.100;6.686;2023-04-12T15:27:32;13.10;97.90
54684;DHT22;40582;53.100;6.686;2023-04-12T15:29:58;13.10;98.00
54684;DHT22;40582;53.100;6.686;2023-04-12T15:32:26;13.20;97.80
54684;DHT22;40582;53.100;6.686;2023-04-12T15:34:52;13.30;97.50
54684;DHT22;40582;53.100;6.686;2023-04-12T15:37:19;13.30;96.70
54684;DHT22;40582;53.100;6.686;2023-04-12T15:39:46;13.30;96.10
54684;DHT22;40582;53.100;6.686;2023-04-12T15:42:11;13.20;95.60
54684;DHT22;40582;53.100;6.686;2023-04-12T15:44:37;13.10;95.70
54684;DHT22;40582;53.100;6.686;2023-04-12T15:47:03;13.00;96.30
54684;DHT22;40582;53.100;6.686;2023-04-12T15:49:30;12.80;96.90
54684;DHT22;40582;53.100;6.686;2023-04-12T15:51:56;12.70;97.40
54684;DHT22;40582;53.100;6.686;2023-04-12T15:54:22;12.50;97.90
54684;DHT22;40582;53.100;6.686;2023-04-12T15:56:48;12.40;98.10
54684;DHT22;40582;53.100;6.686;2023-04-12T15:59:15;12.30;98.50
54684;DHT22;40582;53.100;6.686;2023-04-12T16:01:44;12.30;99.20
54684;DHT22;40582;53.100;6.686;2023-04-12T16:04:11;12.20;99.80
54684;DHT22;40582;53.100;6.686;2023-04-12T16:06:38;12.20;99.90
54684;DHT22;40582;53.100;6.686;2023-04-12T16:09:04;12.20;99.90
54684;DHT22;40582;53.100;6.686;2023-04-12T16:11:30;12.10;99.90